createdAt,value
2022-07-27T00:01:51.335Z,100.00
2022-07-27T00:04:20.606Z,100.00
2022-07-27T00:06:49.383Z,100.00
2022-07-27T00:09:18.392Z,100.00
2022-07-27T00:11:47.680Z,100.00
2022-07-27T00:14:16.267Z,100.00
2022-07-27T00:16:45.829Z,100.00
2022-07-27T00:19:15.190Z,100.00
2022-07-27T00:21:46.393Z,100.00
2022-07-27T00:24:16.927Z,100.00
2022-07-27T00:26:47.851Z,100.00
2022-07-27T00:29:16.706Z,100.00
2022-07-27T00:31:46.702Z,100.00
2022-07-27T00:34:17.558Z,100.00
2022-07-27T00:36:47.523Z,100.00
2022-07-27T00:39:17.282Z,100.00
2022-07-27T00:41:47.818Z,100.00
2022-07-27T00:44:26.798Z,100.00
2022-07-27T00:46:57.860Z,100.00
2022-07-27T00:49:27.377Z,100.00
2022-07-27T00:51:56.481Z,100.00
2022-07-27T00:54:25.514Z,100.00
2022-07-27T00:56:55.453Z,100.00
2022-07-27T00:59:23.893Z,100.00
2022-07-27T01:01:53.802Z,100.00
2022-07-27T01:04:25.000Z,100.00
2022-07-27T01:06:53.478Z,100.00
2022-07-27T01:09:39.595Z,100.00
2022-07-27T01:12:13.517Z,100.00
2022-07-27T01:14:42.659Z,100.00
2022-07-27T01:17:10.959Z,100.00
2022-07-27T01:19:42.372Z,100.00
2022-07-27T01:22:12.467Z,100.00
2022-07-27T01:24:40.824Z,100.00
2022-07-27T01:27:12.050Z,100.00
2022-07-27T01:29:41.666Z,100.00
2022-07-27T01:32:09.632Z,100.00
2022-07-27T01:34:39.370Z,100.00
2022-07-27T01:37:09.563Z,100.00
2022-07-27T01:39:39.895Z,100.00
2022-07-27T01:42:10.195Z,100.00
2022-07-27T01:44:41.006Z,100.00
2022-07-27T01:47:14.050Z,100.00
2022-07-27T01:49:43.037Z,100.00
2022-07-27T01:52:11.722Z,100.00
2022-07-27T01:54:41.482Z,100.00
2022-07-27T01:57:11.829Z,100.00
2022-07-27T01:59:41.478Z,100.00
2022-07-27T02:02:14.283Z,100.00
2022-07-27T02:04:43.352Z,100.00
2022-07-27T02:07:13.244Z,100.00
2022-07-27T02:09:46.049Z,100.00
2022-07-27T02:12:31.522Z,100.00
2022-07-27T02:15:05.528Z,100.00
2022-07-27T02:17:33.994Z,100.00
2022-07-27T02:20:07.257Z,100.00
2022-07-27T02:22:36.282Z,100.00
2022-07-27T02:25:07.066Z,100.00
2022-07-27T02:27:36.709Z,100.00
2022-07-27T02:30:07.828Z,100.00
2022-07-27T02:32:36.397Z,100.00
2022-07-27T02:35:18.819Z,100.00
2022-07-27T02:37:49.299Z,100.00
2022-07-27T02:40:21.661Z,100.00
2022-07-27T02:42:49.591Z,100.00
2022-07-27T02:45:18.018Z,100.00
2022-07-27T02:47:46.778Z,100.00
2022-07-27T02:50:16.501Z,100.00
2022-07-27T02:52:44.711Z,100.00
2022-07-27T02:55:15.533Z,100.00
2022-07-27T02:57:47.796Z,100.00
2022-07-27T03:00:17.483Z,100.00
2022-07-27T03:02:50.147Z,100.00
2022-07-27T03:05:18.634Z,100.00
2022-07-27T03:07:46.556Z,100.00
2022-07-27T03:10:15.068Z,100.00
2022-07-27T03:12:44.989Z,100.00
2022-07-27T03:15:14.853Z,100.00
2022-07-27T03:17:43.090Z,100.00
2022-07-27T03:20:16.820Z,100.00
2022-07-27T03:22:47.484Z,100.00
2022-07-27T03:25:16.431Z,100.00
2022-07-27T03:27:46.343Z,100.00
2022-07-27T03:30:17.972Z,100.00
2022-07-27T03:32:48.282Z,100.00
2022-07-27T03:35:19.768Z,100.00
2022-07-27T03:37:48.096Z,100.00
2022-07-27T03:40:18.061Z,100.00
2022-07-27T03:42:47.773Z,100.00
2022-07-27T03:45:18.460Z,100.00
2022-07-27T03:47:46.811Z,100.00
2022-07-27T03:50:16.459Z,100.00
2022-07-27T03:52:46.464Z,100.00
2022-07-27T03:55:14.444Z,100.00
2022-07-27T03:57:44.275Z,100.00
2022-07-27T04:00:15.855Z,100.00
2022-07-27T04:02:46.689Z,100.00
2022-07-27T04:05:15.349Z,100.00
2022-07-27T04:07:45.742Z,100.00
2022-07-27T04:10:14.181Z,100.00
2022-07-27T04:12:42.341Z,100.00
2022-07-27T04:15:11.404Z,100.00
2022-07-27T04:17:54.703Z,100.00
2022-07-27T04:20:27.746Z,100.00
2022-07-27T04:22:56.071Z,100.00
2022-07-27T04:25:26.048Z,100.00
2022-07-27T04:27:55.189Z,100.00
2022-07-27T04:30:24.100Z,100.00
2022-07-27T04:32:52.357Z,100.00
2022-07-27T04:35:25.934Z,100.00
2022-07-27T04:37:58.805Z,100.00
2022-07-27T04:40:33.807Z,100.00
2022-07-27T04:43:05.416Z,100.00
2022-07-27T04:45:34.513Z,100.00
2022-07-27T04:48:07.162Z,100.00
2022-07-27T04:50:40.577Z,100.00
2022-07-27T04:53:12.215Z,100.00
2022-07-27T04:55:43.309Z,100.00
2022-07-27T04:58:14.447Z,100.00
2022-07-27T05:00:44.546Z,100.00
2022-07-27T05:03:13.495Z,100.00
2022-07-27T05:05:49.959Z,100.00
2022-07-27T05:08:21.114Z,100.00
2022-07-27T05:10:50.627Z,100.00
2022-07-27T05:13:21.428Z,100.00
2022-07-27T05:15:55.221Z,100.00
2022-07-27T05:18:25.621Z,100.00
2022-07-27T05:20:54.226Z,100.00
2022-07-27T05:23:26.581Z,100.00
2022-07-27T05:25:54.868Z,100.00
2022-07-27T05:28:22.883Z,100.00
2022-07-27T05:30:52.221Z,100.00
2022-07-27T05:33:22.794Z,100.00
2022-07-27T05:35:50.877Z,100.00
2022-07-27T05:38:19.158Z,100.00
2022-07-27T05:40:50.786Z,100.00
2022-07-27T05:43:20.498Z,100.00
2022-07-27T05:45:49.404Z,100.00
2022-07-27T05:48:18.599Z,100.00
2022-07-27T05:50:49.277Z,100.00
2022-07-27T05:53:19.022Z,100.00
2022-07-27T05:55:58.548Z,100.00
2022-07-27T05:58:30.217Z,100.00
2022-07-27T06:01:00.000Z,100.00
2022-07-27T06:03:29.937Z,100.00
2022-07-27T06:06:26.749Z,100.00
2022-07-27T06:08:55.627Z,100.00
2022-07-27T06:11:23.514Z,100.00
2022-07-27T06:13:53.854Z,100.00
2022-07-27T06:16:23.693Z,100.00
2022-07-27T06:18:53.089Z,100.00
2022-07-27T06:21:24.220Z,100.00
2022-07-27T06:24:12.404Z,100.00
2022-07-27T06:26:41.877Z,100.00
2022-07-27T06:29:11.598Z,100.00
2022-07-27T06:31:39.679Z,100.00
2022-07-27T06:34:12.668Z,100.00
2022-07-27T06:36:45.146Z,100.00
2022-07-27T06:39:14.025Z,100.00
2022-07-27T06:41:43.403Z,100.00
2022-07-27T06:44:13.371Z,100.00
2022-07-27T06:46:44.363Z,100.00
2022-07-27T06:49:15.056Z,100.00
2022-07-27T06:51:43.971Z,100.00
2022-07-27T06:54:14.890Z,100.00
2022-07-27T06:56:44.830Z,100.00
2022-07-27T06:59:15.134Z,99.83
2022-07-27T07:01:48.476Z,96.78
2022-07-27T07:04:23.204Z,96.22
2022-07-27T07:06:53.381Z,97.42
2022-07-27T07:09:23.452Z,95.08
2022-07-27T07:11:53.468Z,96.16
2022-07-27T07:14:26.064Z,96.65
2022-07-27T07:16:54.386Z,97.32
2022-07-27T07:19:25.489Z,91.76
2022-07-27T07:21:54.171Z,89.44
2022-07-27T07:24:23.779Z,89.45
2022-07-27T07:26:52.756Z,92.66
2022-07-27T07:29:21.270Z,94.46
2022-07-27T07:31:50.793Z,89.72
2022-07-27T07:34:20.834Z,90.07
2022-07-27T07:36:50.425Z,87.20
2022-07-27T07:39:18.371Z,86.31
2022-07-27T07:41:48.328Z,84.99
2022-07-27T07:44:17.099Z,86.44
2022-07-27T07:46:47.367Z,86.22
2022-07-27T07:49:17.456Z,85.77
2022-07-27T07:51:46.972Z,87.08
2022-07-27T07:54:15.828Z,88.85
2022-07-27T07:56:44.340Z,87.37
2022-07-27T07:59:15.176Z,86.80
2022-07-27T08:01:44.620Z,86.97
2022-07-27T08:04:13.483Z,85.64
2022-07-27T08:06:43.962Z,87.26
2022-07-27T08:09:13.306Z,87.17
2022-07-27T08:11:43.171Z,85.77
2022-07-27T08:14:11.872Z,82.60
2022-07-27T08:16:40.878Z,83.17
2022-07-27T08:19:11.158Z,82.93
2022-07-27T08:21:39.295Z,80.14
2022-07-27T08:24:09.271Z,78.92
2022-07-27T08:26:38.533Z,80.46
2022-07-27T08:29:13.581Z,77.76
2022-07-27T08:31:51.148Z,77.95
2022-07-27T08:34:23.374Z,78.30
2022-07-27T08:36:53.346Z,78.65
2022-07-27T08:40:05.737Z,80.05
2022-07-27T08:42:14.013Z,79.40
2022-07-27T08:44:42.644Z,81.18
2022-07-27T08:47:12.401Z,79.49
2022-07-27T08:49:43.608Z,78.06
2022-07-27T08:52:13.547Z,77.58
2022-07-27T08:54:43.881Z,78.13
2022-07-27T08:57:14.271Z,74.53
2022-07-27T08:59:43.418Z,77.84
2022-07-27T09:02:15.349Z,77.05
2022-07-27T09:04:44.207Z,77.93
2022-07-27T09:07:28.615Z,76.21
2022-07-27T09:10:01.337Z,76.35
2022-07-27T09:12:30.658Z,76.88
2022-07-27T09:15:07.729Z,76.89
2022-07-27T09:17:52.299Z,75.66
2022-07-27T09:20:22.137Z,75.15
2022-07-27T09:22:54.854Z,72.21
2022-07-27T09:25:52.123Z,71.98
2022-07-27T09:28:14.488Z,71.63
2022-07-27T09:30:44.697Z,73.88
2022-07-27T09:33:16.565Z,74.04
2022-07-27T09:35:46.267Z,73.00
2022-07-27T09:38:22.311Z,71.16
2022-07-27T09:41:00.841Z,70.71
2022-07-27T09:46:30.428Z,72.51
2022-07-27T09:48:58.863Z,72.47
2022-07-27T09:51:58.984Z,72.27
2022-07-27T09:54:16.957Z,72.30
2022-07-27T09:56:46.548Z,71.85
2022-07-27T09:59:20.105Z,73.97
2022-07-27T10:01:54.320Z,74.08
2022-07-27T10:04:26.379Z,73.11
2022-07-27T10:07:02.705Z,72.99
2022-07-27T10:09:33.354Z,72.17
2022-07-27T10:12:04.673Z,72.91
2022-07-27T10:14:35.246Z,72.42
2022-07-27T10:17:05.121Z,73.45
2022-07-27T10:19:41.942Z,71.27
2022-07-27T10:22:11.630Z,71.17
2022-07-27T10:24:41.272Z,70.87
2022-07-27T10:27:21.470Z,71.42
2022-07-27T10:29:52.580Z,72.01
2022-07-27T10:32:25.752Z,70.61
2022-07-27T10:34:54.140Z,70.34
2022-07-27T10:37:28.645Z,69.28
2022-07-27T10:40:12.573Z,68.61
2022-07-27T10:42:42.245Z,69.62
2022-07-27T10:45:13.414Z,68.29
2022-07-27T10:47:45.628Z,68.59
2022-07-27T10:50:29.832Z,65.59
2022-07-27T10:53:00.098Z,65.50
2022-07-27T10:55:52.691Z,63.95
2022-07-27T10:58:51.572Z,64.00
2022-07-27T11:01:22.516Z,64.44
2022-07-27T11:03:59.170Z,65.13
2022-07-27T11:06:37.543Z,65.34
2022-07-27T11:12:07.407Z,64.75
2022-07-27T11:14:46.726Z,62.55
2022-07-27T11:20:06.421Z,60.18
2022-07-27T11:23:40.684Z,61.05
2022-07-27T11:25:26.368Z,62.47
2022-07-27T11:27:58.880Z,61.83
2022-07-27T11:30:29.923Z,60.75
2022-07-27T11:32:59.025Z,59.60
2022-07-27T11:35:27.091Z,60.63
2022-07-27T11:38:03.139Z,60.78
2022-07-27T11:43:37.558Z,59.98
2022-07-27T11:46:20.494Z,61.08
2022-07-27T11:49:06.019Z,60.26
2022-07-27T11:51:35.791Z,59.29
2022-07-27T11:54:07.022Z,62.31
2022-07-27T11:56:37.931Z,59.14
2022-07-27T11:59:12.222Z,58.94
2022-07-27T12:01:46.647Z,59.56
2022-07-27T12:04:18.806Z,59.44
2022-07-27T12:06:50.579Z,61.02
2022-07-27T12:09:21.310Z,61.36
2022-07-27T12:12:00.588Z,62.09
2022-07-27T12:14:34.432Z,61.77
2022-07-27T12:17:16.868Z,63.08
2022-07-27T12:19:52.013Z,63.79
2022-07-27T12:22:25.789Z,62.33
2022-07-27T12:24:55.753Z,64.01
2022-07-27T12:27:27.275Z,63.44
2022-07-27T12:30:10.996Z,63.41
2022-07-27T12:32:43.894Z,63.67
2022-07-27T12:35:22.234Z,63.63
2022-07-27T12:37:57.686Z,63.41
2022-07-27T12:40:26.405Z,63.47
2022-07-27T12:43:01.051Z,63.39
2022-07-27T12:45:33.437Z,64.01
2022-07-27T12:48:11.076Z,64.02
2022-07-27T12:50:43.095Z,63.76
2022-07-27T12:53:14.642Z,61.51
2022-07-27T12:55:44.147Z,61.81
2022-07-27T12:58:14.305Z,61.51
2022-07-27T13:00:44.431Z,60.75
2022-07-27T13:03:14.347Z,61.03
2022-07-27T13:05:43.783Z,60.77
2022-07-27T13:08:12.509Z,59.60
2022-07-27T13:10:48.454Z,58.63
2022-07-27T13:13:17.098Z,58.46
2022-07-27T13:15:45.473Z,59.36
2022-07-27T13:18:21.246Z,59.60
2022-07-27T13:20:52.417Z,59.19
2022-07-27T13:23:22.041Z,60.04
2022-07-27T13:25:51.076Z,58.88
2022-07-27T13:28:19.931Z,58.96
2022-07-27T13:30:49.774Z,61.02
2022-07-27T13:33:21.087Z,59.97
2022-07-27T13:35:59.164Z,61.49
2022-07-27T13:38:30.559Z,61.69
2022-07-27T13:41:00.578Z,61.24
2022-07-27T13:43:30.276Z,59.76
2022-07-27T13:46:00.214Z,60.20
2022-07-27T13:48:32.297Z,59.89
2022-07-27T13:51:01.186Z,60.27
2022-07-27T13:53:29.767Z,61.70
2022-07-27T13:55:58.067Z,60.21
2022-07-27T13:58:26.807Z,60.65
2022-07-27T14:00:56.577Z,60.92
2022-07-27T14:03:24.592Z,62.32
2022-07-27T14:05:55.790Z,62.94
2022-07-27T14:08:25.404Z,64.82
2022-07-27T14:10:56.339Z,64.59
2022-07-27T14:14:01.465Z,65.13
2022-07-27T14:17:08.090Z,66.86
2022-07-27T14:20:13.742Z,66.29
2022-07-27T14:23:20.186Z,66.49
2022-07-27T14:26:25.393Z,65.55
2022-07-27T14:29:30.529Z,67.00
2022-07-27T14:32:36.553Z,70.87
2022-07-27T14:35:41.681Z,74.23
2022-07-27T14:38:48.172Z,75.92
2022-07-27T14:41:53.336Z,78.32
2022-07-27T14:44:58.737Z,79.00
2022-07-27T14:48:04.083Z,79.47
2022-07-27T14:51:08.976Z,81.20
2022-07-27T14:54:15.349Z,81.81
2022-07-27T14:57:20.506Z,81.50
2022-07-27T15:00:25.966Z,81.14
2022-07-27T15:03:31.605Z,81.35
2022-07-27T15:06:39.172Z,82.26
2022-07-27T15:09:46.020Z,83.83
2022-07-27T15:12:14.455Z,85.41
2022-07-27T15:14:43.410Z,86.13
2022-07-27T15:17:11.435Z,83.58
2022-07-27T15:19:39.664Z,82.48
2022-07-27T15:22:07.575Z,85.47
2022-07-27T15:24:38.364Z,88.22
2022-07-27T15:27:07.976Z,88.00
2022-07-27T15:29:36.594Z,90.96
2022-07-27T15:32:05.152Z,92.85
2022-07-27T15:34:33.089Z,92.71
2022-07-27T15:37:00.986Z,92.69
2022-07-27T15:39:29.004Z,91.78
2022-07-27T15:41:57.148Z,95.17
2022-07-27T15:44:26.831Z,97.86
2022-07-27T15:46:55.428Z,100.00
2022-07-27T15:49:23.900Z,100.00
2022-07-27T15:51:52.552Z,100.00
2022-07-27T15:54:20.961Z,100.00
2022-07-27T15:56:49.218Z,100.00
2022-07-27T15:59:17.318Z,100.00
2022-07-27T16:01:48.248Z,100.00
2022-07-27T16:04:16.813Z,100.00
2022-07-27T16:06:44.916Z,100.00
2022-07-27T16:09:13.870Z,100.00
2022-07-27T16:11:42.182Z,97.73
2022-07-27T16:14:10.245Z,98.22
2022-07-27T16:16:38.445Z,93.90
2022-07-27T16:19:12.570Z,90.90
2022-07-27T16:21:53.610Z,89.07
2022-07-27T16:24:24.440Z,88.45
2022-07-27T16:26:52.573Z,89.10
2022-07-27T16:29:20.775Z,89.76
2022-07-27T16:31:49.021Z,90.26
2022-07-27T16:34:18.492Z,92.59
2022-07-27T16:36:47.142Z,92.33
2022-07-27T16:39:15.479Z,91.39
2022-07-27T16:41:44.018Z,88.14
2022-07-27T16:44:12.105Z,91.52
2022-07-27T16:46:42.485Z,88.12
2022-07-27T16:49:10.803Z,88.71
2022-07-27T16:51:40.718Z,88.35
2022-07-27T16:54:09.342Z,85.22
2022-07-27T16:56:37.854Z,87.02
2022-07-27T16:59:06.178Z,87.30
2022-07-27T17:01:34.302Z,86.07
2022-07-27T17:04:02.430Z,85.30
2022-07-27T17:06:31.788Z,83.52
2022-07-27T17:09:01.172Z,83.51
2022-07-27T17:11:29.307Z,85.03
2022-07-27T17:13:59.061Z,88.37
2022-07-27T17:16:28.202Z,89.58
2022-07-27T17:18:56.436Z,90.56
2022-07-27T17:21:24.480Z,88.31
2022-07-27T17:23:52.860Z,87.76
2022-07-27T17:26:22.700Z,88.97
2022-07-27T17:28:53.575Z,92.25
2022-07-27T17:31:22.178Z,95.70
2022-07-27T17:33:51.055Z,96.29
2022-07-27T17:36:19.472Z,93.63
2022-07-27T17:38:48.144Z,92.56
2022-07-27T17:41:23.813Z,93.39
2022-07-27T17:43:54.528Z,95.99
2022-07-27T17:46:24.619Z,95.39
2022-07-27T17:48:53.297Z,98.13
2022-07-27T17:51:23.272Z,99.97
2022-07-27T17:53:51.350Z,100.00
2022-07-27T17:56:19.335Z,100.00
2022-07-27T17:58:48.144Z,98.85
2022-07-27T18:01:17.504Z,99.90
2022-07-27T18:03:45.426Z,99.06
2022-07-27T18:06:13.345Z,98.93
2022-07-27T18:08:41.199Z,99.29
2022-07-27T18:11:12.097Z,98.23
2022-07-27T18:13:40.508Z,97.93
2022-07-27T18:16:11.606Z,99.41
2022-07-27T18:18:42.789Z,98.66
2022-07-27T18:21:11.563Z,98.89
2022-07-27T18:23:40.134Z,100.00
2022-07-27T18:26:09.898Z,100.00
2022-07-27T18:28:40.018Z,100.00
2022-07-27T18:31:09.685Z,100.00
2022-07-27T18:33:38.136Z,100.00
2022-07-27T18:36:08.228Z,100.00
2022-07-27T18:38:36.153Z,100.00
2022-07-27T18:41:04.129Z,100.00
2022-07-27T18:43:32.103Z,99.65
2022-07-27T18:46:00.330Z,100.00
2022-07-27T18:48:28.821Z,100.00
2022-07-27T18:50:57.569Z,100.00
2022-07-27T18:53:27.091Z,100.00
2022-07-27T18:55:56.729Z,100.00
2022-07-27T18:58:25.789Z,100.00
2022-07-27T19:00:54.380Z,100.00
2022-07-27T19:03:22.890Z,100.00
2022-07-27T19:05:53.136Z,100.00
2022-07-27T19:08:21.425Z,100.00
2022-07-27T19:10:51.772Z,100.00
2022-07-27T19:13:19.639Z,100.00
2022-07-27T19:15:47.562Z,100.00
2022-07-27T19:18:15.546Z,100.00
2022-07-27T19:20:43.506Z,100.00
2022-07-27T19:23:12.302Z,100.00
2022-07-27T19:25:40.314Z,100.00
2022-07-27T19:28:09.645Z,100.00
2022-07-27T19:30:38.764Z,100.00
2022-07-27T19:33:07.029Z,100.00
2022-07-27T19:35:35.144Z,100.00
2022-07-27T19:38:03.046Z,100.00
2022-07-27T19:40:43.951Z,100.00
2022-07-27T19:43:15.775Z,100.00
2022-07-27T19:45:44.208Z,100.00
2022-07-27T19:48:12.394Z,100.00
2022-07-27T19:50:40.925Z,100.00
2022-07-27T19:53:08.901Z,100.00
2022-07-27T19:55:36.831Z,100.00
2022-07-27T19:58:05.064Z,100.00
2022-07-27T20:00:34.660Z,100.00
2022-07-27T20:03:03.209Z,100.00
2022-07-27T20:05:32.436Z,100.00
2022-07-27T20:08:00.330Z,100.00
2022-07-27T20:10:28.226Z,100.00
2022-07-27T20:12:56.221Z,96.58
2022-07-27T20:15:24.468Z,93.47
2022-07-27T20:17:53.909Z,92.40
2022-07-27T20:20:21.855Z,89.83
2022-07-27T20:22:49.877Z,90.76
2022-07-27T20:25:18.581Z,91.34
2022-07-27T20:27:47.555Z,90.11
2022-07-27T20:30:17.515Z,90.39
2022-07-27T20:32:45.818Z,90.52
2022-07-27T20:35:15.331Z,89.25
2022-07-27T20:37:43.272Z,90.80
2022-07-27T20:40:12.413Z,91.01
2022-07-27T20:42:41.376Z,91.17
2022-07-27T20:45:12.726Z,91.57
2022-07-27T20:47:41.217Z,91.96
2022-07-27T20:50:10.648Z,91.79
2022-07-27T20:52:40.720Z,92.22
2022-07-27T20:55:09.745Z,92.25
2022-07-27T20:57:37.838Z,92.60
2022-07-27T21:00:07.638Z,92.79
2022-07-27T21:02:35.694Z,93.19
2022-07-27T21:05:03.671Z,93.43
2022-07-27T21:07:31.611Z,93.80
2022-07-27T21:10:00.983Z,94.35
2022-07-27T21:12:29.035Z,93.52
2022-07-27T21:14:56.959Z,93.70
2022-07-27T21:17:24.981Z,92.73
2022-07-27T21:19:53.979Z,94.00
2022-07-27T21:22:21.885Z,94.54
2022-07-27T21:24:50.179Z,95.68
2022-07-27T21:27:21.217Z,96.25
2022-07-27T21:29:49.775Z,97.53
2022-07-27T21:32:17.870Z,97.74
2022-07-27T21:34:45.717Z,97.48
2022-07-27T21:37:13.805Z,98.34
2022-07-27T21:39:41.780Z,99.65
2022-07-27T21:42:09.672Z,99.89
2022-07-27T21:44:39.382Z,100.00
2022-07-27T21:47:13.040Z,100.00
2022-07-27T21:49:41.596Z,100.00
2022-07-27T21:52:09.677Z,100.00
2022-07-27T21:54:37.988Z,100.00
2022-07-27T21:57:06.387Z,100.00
2022-07-27T21:59:34.410Z,100.00
2022-07-27T22:02:03.689Z,100.00
2022-07-27T22:04:31.607Z,100.00
2022-07-27T22:06:59.738Z,100.00
2022-07-27T22:09:27.639Z,100.00
2022-07-27T22:11:56.448Z,100.00
2022-07-27T22:14:24.841Z,100.00
2022-07-27T22:16:53.763Z,100.00
2022-07-27T22:19:23.807Z,100.00
2022-07-27T22:21:51.765Z,100.00
2022-07-27T22:24:19.675Z,100.00
2022-07-27T22:26:49.128Z,100.00
2022-07-27T22:29:17.085Z,100.00
2022-07-27T22:31:45.083Z,100.00
2022-07-27T22:34:13.381Z,100.00
2022-07-27T22:36:42.932Z,100.00
2022-07-27T22:39:10.815Z,100.00
2022-07-27T22:41:38.662Z,100.00
2022-07-27T22:44:06.608Z,100.00
2022-07-27T22:46:34.543Z,100.00
2022-07-27T22:49:02.824Z,100.00
2022-07-27T22:51:48.757Z,100.00
2022-07-27T22:54:19.749Z,100.00
2022-07-27T22:56:47.982Z,100.00
2022-07-27T22:59:15.915Z,100.00
2022-07-27T23:01:47.173Z,100.00
2022-07-27T23:04:17.164Z,100.00
2022-07-27T23:06:45.620Z,100.00
2022-07-27T23:09:13.568Z,100.00
2022-07-27T23:11:43.204Z,100.00
2022-07-27T23:14:11.503Z,100.00
2022-07-27T23:16:39.620Z,100.00
2022-07-27T23:19:07.675Z,100.00
2022-07-27T23:21:35.776Z,100.00
2022-07-27T23:24:05.676Z,100.00
2022-07-27T23:26:33.701Z,100.00
2022-07-27T23:29:03.199Z,100.00
2022-07-27T23:31:31.268Z,100.00
2022-07-27T23:33:59.340Z,100.00
2022-07-27T23:36:27.293Z,100.00
2022-07-27T23:38:55.401Z,100.00
2022-07-27T23:41:23.329Z,100.00
2022-07-27T23:43:51.242Z,100.00
2022-07-27T23:46:20.544Z,100.00
2022-07-27T23:48:48.655Z,100.00
2022-07-27T23:51:17.988Z,100.00
2022-07-27T23:53:45.913Z,100.00
2022-07-27T23:56:13.903Z,100.00
2022-07-27T23:58:41.914Z,100.00
